Terminal Aerodrome Forecast
Issued by NWS

Home | Current Version | Previous Version | Text Only | Print | Product List | Glossary On
Versions: 1 2 3 4 5 6 7 8 9 10 11 12 13 14 15 16 17 18 19 20 21
663
FTUS46 KSEW 201134
TAFPAE
TAF
KPAE 201134Z 2012/2112 08006KT P6SM BKN200
     FM202300 15008KT P6SM BKN050 OVC080
      TEMPO 2023/2102 -RA
     FM210300 14007KT P6SM SCT050 BKN070=

USA.gov is the U.S. government's official web portal to all federal, state and local government web resources and services.